Data for 12/31/2016

Time Sea-Level Adjusted Pressure Absolute Pressure Temperature Relative Humidity Dew Point   
(mb) (inHg) (mb) (inHg) (C) (F) (%) (C) (F)
00:05 1014 29.94 843 24.89 -5.9 21.4 55 -13.5 7.7
00:10 1014 29.94 843 24.89 -5.8 21.5 56 -13.3 8
00:15 1014 29.94 843 24.89 -6 21.2 56 -13.4 7.9
00:20 1014 29.94 843 24.89 -6.2 20.8 57 -13.4 7.9
00:25 1014 29.94 843 24.89 -6.4 20.5 57 -13.6 7.6
00:30 1014 29.94 843 24.89 -6.4 20.5 57 -13.5 7.6
00:35 1014 29.94 843 24.89 -6.5 20.3 59 -13.2 8.2
00:40 1014 29.94 843 24.89 -6.8 19.8 60 -13.4 8
00:45 1014 29.94 843 24.89 -6.9 19.5 60 -13.5 7.7
00:50 1014 29.94 843 24.89 -7 19.4 57 -14.1 6.7
00:55 1014 29.94 843 24.89 -6.7 19.9 58 -13.6 7.5
01:00 1014 29.94 843 24.89 -6.9 19.5 59 -13.8 7.2
01:05 1014 29.94 843 24.89 -7 19.5 60 -13.6 7.6
01:10 1014 29.94 843 24.89 -7 19.4 60 -13.5 7.7
01:15 1014 29.94 843 24.89 -7.1 19.1 61 -13.5 7.7
01:20 1014 29.94 843 24.89 -7.2 19 61 -13.5 7.7
01:25 1014 29.94 843 24.89 -7.3 18.8 62 -13.4 7.9
01:30 1014 29.94 843 24.89 -7.3 18.9 62 -13.4 7.8
01:35 1014 29.94 843 24.89 -7.4 18.8 62 -13.4 7.8
01:40 1014 29.94 843 24.89 -7.3 18.8 62 -13.5 7.7
01:45 1014 29.94 843 24.89 -7.3 18.9 61 -13.5 7.7
01:50 1014 29.94 843 24.89 -6.9 19.6 59 -13.6 7.6
01:55 1014 29.94 843 24.89 -6.6 20 60 -13.1 8.3
02:00 1014 29.94 843 24.89 -8.1 17.5 65 -13.4 7.8
02:05 1014 29.94 843 24.89 -8.2 17.2 65 -13.7 7.3
02:10 1014 29.94 843 24.89 -8.1 17.5 65 -13.5 7.8
02:15 1014 29.94 843 24.89 -8 17.6 65 -13.5 7.7
02:20 1014 29.94 843 24.89 -8.1 17.5 66 -13.3 8.1
02:25 1014 29.94 843 24.89 -7.8 18 65 -13.2 8.2
02:30 1014 29.94 843 24.89 -7.8 18.1 66 -13 8.6
02:35 1014 29.94 843 24.89 -7.6 18.3 66 -13 8.7
02:40 1014 29.94 843 24.89 -8.1 17.5 67 -13.1 8.4
02:45 1014 29.94 843 24.89 -8.4 16.9 67 -13.4 7.8
02:50 1014 29.94 843 24.89 -9.1 15.6 69 -13.7 7.3
02:55 1014 29.94 843 24.89 -9 15.7 71 -13.3 8
03:00 1014 29.94 843 24.89 -8.1 17.5 66 -13.4 8
03:05 1014 29.94 843 24.89 -8 17.7 68 -12.9 8.7
03:10 1014 29.94 843 24.89 -8.1 17.5 67 -13.1 8.4
03:15 1014 29.94 843 24.89 -8.4 16.8 69 -13.2 8.2
03:20 1014 29.94 843 24.89 -8.9 16 71 -13.2 8.2
03:25 1014 29.94 843 24.89 -8.6 16.5 70 -13.2 8.3
03:30 1014 29.94 843 24.89 -8.6 16.6 67 -13.7 7.4
03:35 1014 29.94 843 24.89 -8.8 16.3 67 -13.9 7
03:40 1014 29.94 843 24.89 -8.9 16 69 -13.6 7.5
03:45 1014 29.94 843 24.89 -9.2 15.5 70 -13.6 7.5
03:50 1014 29.94 843 24.89 -9.5 14.9 72 -13.7 7.3
03:55 1014 29.94 843 24.89 -8.9 16 67 -14 6.7
04:00 1014 29.94 843 24.89 -8.9 16 67 -13.9 6.9
04:05 1014 29.94 843 24.89 -9.1 15.6 68 -14 6.8
04:10 1014 29.94 843 24.89 -9.6 14.7 73 -13.6 7.5
04:15 1014 29.94 843 24.89 -9.7 14.5 71 -14 6.7
04:20 1014 29.94 843 24.89 -9.5 15 68 -14.3 6.2
04:25 1014 29.94 843 24.89 -9.1 15.6 67 -14.1 6.6
04:30 1014 29.94 843 24.89 -9.4 15.1 71 -13.7 7.3
04:35 1014 29.94 843 24.89 -9.4 15 68 -14.3 6.3
04:40 1014 29.94 843 24.89 -9.4 15.1 69 -14.1 6.7
04:45 1014 29.94 843 24.89 -9.3 15.2 67 -14.3 6.3
04:50 1014 29.94 843 24.89 -9 15.8 68 -13.8 7.1
04:55 1014 29.94 843 24.89 -9.3 15.3 73 -13.3 8.1
05:00 1014 29.94 843 24.89 -9.2 15.4 71 -13.6 7.5
05:05 1014 29.94 843 24.89 -9.3 15.3 67 -14.3 6.3
05:10 1014 29.94 843 24.89 -9.2 15.4 73 -13.2 8.3
05:15 1014 29.94 843 24.89 -9.7 14.6 73 -13.6 7.5
05:20 1014 29.94 843 24.89 -10 13.9 73 -13.9 6.9
05:25 1014 29.94 843 24.89 -10.1 13.8 76 -13.6 7.6
05:30 1014 29.94 843 24.89 -9.9 14.2 75 -13.5 7.6
05:35 1014 29.94 843 24.89 -9.7 14.6 73 -13.6 7.4
05:40 1014 29.94 843 24.89 -9.6 14.8 70 -14.1 6.6
05:45 1014 29.94 843 24.89 -9.6 14.8 70 -14.1 6.7
05:50 1014 29.94 843 24.89 -9.4 15.1 69 -14 6.7
05:55 1013 29.91 843 24.89 -9.3 15.3 68 -14.1 6.6
06:00 1013 29.91 843 24.89 -9.4 15.1 69 -14.1 6.6
06:05 1013 29.91 842 24.86 -9.4 15.1 69 -14.1 6.6
06:10 1013 29.91 842 24.86 -9.3 15.3 68 -14.1 6.6
06:15 1013 29.91 842 24.86 -9.2 15.5 71 -13.5 7.8
06:20 1013 29.91 842 24.86 -9.2 15.5 67 -14.2 6.4
06:25 1013 29.91 842 24.86 -9.5 15 68 -14.4 6.1
06:30 1013 29.91 842 24.86 -9.4 15.1 69 -14.1 6.6
06:35 1013 29.91 842 24.86 -9.5 14.9 69 -14.2 6.5
06:40 1013 29.91 842 24.86 -9.5 14.9 68 -14.3 6.3
06:45 1013 29.91 842 24.86 -9.4 15.1 68 -14.3 6.2
06:50 1013 29.91 842 24.86 -9.6 14.7 68 -14.5 6
06:55 1013 29.91 842 24.86 -9.7 14.5 66 -14.8 5.3
07:00 1013 29.91 842 24.86 -9.5 14.9 65 -14.9 5.1
07:05 1013 29.91 842 24.86 -9.5 14.9 68 -14.4 6
07:10 1013 29.91 842 24.86 -9.5 15 65 -14.8 5.4
07:15 1013 29.91 842 24.86 -9.6 14.7 67 -14.6 5.7
07:20 1013 29.91 842 24.86 -9.3 15.3 68 -14.1 6.6
07:25 1013 29.91 842 24.86 -9.6 14.8 68 -14.3 6.2
07:30 1013 29.91 842 24.86 -9.7 14.5 69 -14.4 6
07:35 1013 29.91 843 24.89 -10.3 13.5 70 -14.7 5.6
07:40 1013 29.91 843 24.89 -10.6 12.8 72 -14.8 5.3
07:45 1013 29.91 843 24.89 -10.2 13.7 68 -15 4.9
07:50 1013 29.91 843 24.89 -10.2 13.7 67 -15.2 4.6
07:55 1013 29.91 842 24.86 -9.8 14.3 65 -15.1 4.8
08:00 1013 29.91 843 24.89 -9.6 14.7 62 -15.5 4.1
08:05 1013 29.91 842 24.86 -9.6 14.8 63 -15.4 4.3
08:10 1013 29.91 842 24.86 -9.1 15.5 65 -14.6 5.6
08:15 1013 29.91 842 24.86 -9.8 14.4 69 -14.4 6.1
08:20 1013 29.91 842 24.86 -10.1 13.9 70 -14.6 5.7
08:25 1013 29.91 842 24.86 -10 14 69 -14.7 5.6
08:30 1013 29.91 842 24.86 -9.9 14.1 69 -14.7 5.6
08:35 1013 29.91 842 24.86 -10.2 13.7 69 -14.8 5.4
08:40 1013 29.91 842 24.86 -10.3 13.5 69 -14.9 5.2
08:45 1013 29.91 842 24.86 -10.2 13.6 70 -14.8 5.4
08:50 1013 29.91 842 24.86 -10.3 13.5 70 -14.8 5.4
08:55 1013 29.91 842 24.86 -10.4 13.2 70 -14.8 5.3
09:00 1013 29.91 842 24.86 -10.2 13.6 69 -14.8 5.3
09:05 1013 29.91 842 24.86 -9.9 14.1 71 -14.3 6.2
09:10 1013 29.91 842 24.86 -9.8 14.4 68 -14.7 5.5
09:15 1013 29.91 842 24.86 -10.1 13.9 69 -14.8 5.4
09:20 1013 29.91 842 24.86 -10.3 13.4 70 -14.8 5.3
09:25 1013 29.91 842 24.86 -10.2 13.7 69 -14.9 5.2
09:30 1013 29.91 842 24.86 -10 14 70 -14.5 5.8
09:35 1013 29.91 842 24.86 -9.6 14.6 68 -14.5 5.8
09:40 1013 29.91 842 24.86 -9.6 14.7 68 -14.5 6
09:45 1013 29.91 842 24.86 -9.6 14.7 67 -14.7 5.6
09:50 1013 29.91 842 24.86 -9.6 14.7 67 -14.7 5.5
09:55 1013 29.91 842 24.86 -9.6 14.8 67 -14.6 5.7
10:00 1013 29.91 842 24.86 -9.3 15.2 66 -14.6 5.8
10:05 1013 29.91 842 24.86 -9.3 15.2 66 -14.5 5.9
10:10 1013 29.91 842 24.86 -9.3 15.3 65 -14.7 5.6
10:15 1013 29.91 842 24.86 -8.9 16.1 64 -14.5 5.9
10:20 1013 29.91 842 24.86 -8.5 16.7 64 -14.2 6.5
10:25 1013 29.91 842 24.86 -8.2 17.2 62 -14.2 6.4
10:30 1013 29.91 842 24.86 -7.7 18.1 60 -14.2 6.4
10:35 1013 29.91 842 24.86 -7.8 18.1 61 -14.1 6.6
10:40 1013 29.91 842 24.86 -7.7 18.1 61 -14 6.7
10:45 1012 29.88 842 24.86 -7.3 18.8 59 -14 6.8
10:50 1013 29.91 842 24.86 -7 19.3 60 -13.6 7.6
10:55 1013 29.91 842 24.86 -7.1 19.2 60 -13.6 7.6
11:00 1013 29.91 842 24.86 -7 19.5 59 -13.8 7.2
11:05 1013 29.91 842 24.86 -6.5 20.2 57 -13.7 7.3
11:10 1013 29.91 842 24.86 -6.3 20.7 58 -13.3 8.1
11:15 1013 29.91 842 24.86 -6.5 20.3 57 -13.6 7.5
11:20 1013 29.91 842 24.86 -6.1 21 56 -13.6 7.5
11:25 1013 29.91 842 24.86 -5.8 21.5 55 -13.4 7.9
11:30 1013 29.91 842 24.86 -5.4 22.3 50 -14.2 6.5
11:35 1013 29.91 842 24.86 -6 21.3 54 -13.9 6.9
11:40 1013 29.91 842 24.86 -5.6 21.9 52 -14 6.8
11:45 1013 29.91 842 24.86 -5.2 22.7 52 -13.6 7.4
11:50 1013 29.91 842 24.86 -5.2 22.6 54 -13.2 8.2
11:55 1013 29.91 842 24.86 -5.4 22.3 53 -13.5 7.8
12:00 1012 29.88 842 24.86 -5.4 22.3 52 -13.7 7.4
12:05 1012 29.88 842 24.86 -5.3 22.5 51 -13.9 7
12:10 1012 29.88 841 24.83 -5.4 22.2 52 -13.9 7
12:15 1012 29.88 841 24.83 -5.3 22.5 51 -14 6.9
12:20 1012 29.88 841 24.83 -5.2 22.7 49 -14.4 6.1
12:25 1012 29.88 841 24.83 -5.7 21.8 51 -14.3 6.2
12:30 1012 29.88 841 24.83 -6.1 21.1 52 -14.4 6.1
12:35 1012 29.88 841 24.83 -4.9 23.1 47 -14.6 5.8
12:40 1012 29.88 841 24.83 -4.5 23.8 47 -14.1 6.6
12:45 1012 29.88 841 24.83 -5.1 22.8 49 -14.2 6.4
12:50 1012 29.88 841 24.83 -5.7 21.7 49 -14.8 5.4
12:55 1011 29.85 841 24.83 -6 21.3 52 -14.3 6.2
13:00 1011 29.85 841 24.83 -6.1 21 51 -14.6 5.7
13:05 1011 29.85 841 24.83 -6.6 20.2 53 -14.6 5.8
13:10 1011 29.85 841 24.83 -6.2 20.8 52 -14.6 5.7
13:15 1012 29.88 841 24.83 -5.8 21.6 52 -14.1 6.6
13:20 1011 29.85 841 24.83 -5.9 21.3 52 -14.3 6.3
13:25 1011 29.85 841 24.83 -5.3 22.5 49 -14.3 6.2
13:30 1011 29.85 840 24.81 -5.6 22 51 -14.3 6.3
13:35 1011 29.85 841 24.83 -5.5 22.1 50 -14.4 6.2
13:40 1011 29.85 841 24.83 -4.6 23.7 48 -14.1 6.6
13:45 1011 29.85 841 24.83 -4.6 23.8 47 -14.4 6.2
13:50 1011 29.85 841 24.83 -4.3 24.2 49 -13.6 7.5
13:55 1011 29.85 841 24.83 -4.7 23.5 47 -14.4 6
14:00 1011 29.85 841 24.83 -5.7 21.7 52 -14.1 6.6
14:05 1012 29.88 841 24.83 -5 23 49 -14.3 6.3
14:10 1012 29.88 841 24.83 -3.8 25.2 46 -13.8 7.1
14:15 1012 29.88 841 24.83 -4 24.9 45 -14.2 6.4
14:20 1012 29.88 841 24.83 -3.4 25.9 43 -14.1 6.6
14:25 1011 29.85 841 24.83 -2.9 26.8 41 -14.3 6.2
14:30 1011 29.85 841 24.83 -3.3 26.1 42 -14.6 5.8
14:35 1011 29.85 841 24.83 -3.1 26.5 41 -14.5 5.9
14:40 1011 29.85 840 24.81 -3.2 26.2 43 -14.1 6.5
14:45 1011 29.85 840 24.81 -3.3 26 43 -14.2 6.4
14:50 1011 29.85 840 24.81 -3.3 26 44 -14 6.7
14:55 1011 29.85 840 24.81 -3.6 25.5 44 -14.2 6.5
15:00 1011 29.85 840 24.81 -3.6 25.4 44 -14.3 6.3
15:05 1011 29.85 840 24.81 -3.6 25.5 44 -14.1 6.7
15:10 1011 29.85 840 24.81 -3.3 26.1 40 -15.1 4.9
15:15 1011 29.85 840 24.81 -3 26.5 40 -14.7 5.5
15:20 1011 29.85 840 24.81 -2.3 27.9 38 -14.8 5.3
15:25 1011 29.85 840 24.81 -2.3 27.8 40 -14.3 6.3
15:30 1011 29.85 840 24.81 -3 26.5 40 -14.8 5.4
15:35 1011 29.85 840 24.81 -4 24.7 42 -15.2 4.6
15:40 1011 29.85 840 24.81 -3.5 25.6 39 -15.6 3.9
15:45 1010 29.83 840 24.81 -3.3 26 39 -15.3 4.5
15:50 1010 29.83 840 24.81 -3.1 26.4 40 -14.8 5.3
15:55 1010 29.83 840 24.81 -2.7 27.2 38 -15.3 4.5
16:00 1010 29.83 840 24.81 -3.3 26 40 -15 5
16:05 1010 29.83 840 24.81 -3.1 26.4 40 -14.8 5.4
16:10 1010 29.83 840 24.81 -3.3 26 43 -14.3 6.2
16:15 1010 29.83 840 24.81 -3.7 25.3 43 -14.7 5.6
16:20 1010 29.83 840 24.81 -3.4 25.8 42 -14.5 5.8
16:25 1010 29.83 840 24.81 -4.1 24.6 45 -14.4 6.1
16:30 1010 29.83 840 24.81 -4 24.9 45 -14.2 6.4
16:35 1010 29.83 840 24.81 -4 24.9 45 -14.3 6.3
16:40 1010 29.83 839 24.78 -4.1 24.7 44 -14.5 5.8
16:45 1010 29.83 839 24.78 -4.3 24.3 45 -14.5 6
16:50 1010 29.83 839 24.78 -4.5 23.9 46 -14.4 6
16:55 1010 29.83 839 24.78 -4.4 24 47 -14.3 6.3
17:00 1010 29.83 839 24.78 -4.2 24.4 46 -14.2 6.5
17:05 1010 29.83 839 24.78 -4.2 24.4 46 -14.3 6.3
17:10 1010 29.83 839 24.78 -4.4 24.1 46 -14.5 5.9
17:15 1010 29.83 839 24.78 -4.6 23.8 47 -14.2 6.4
17:20 1009 29.8 839 24.78 -4.9 23.2 49 -14.2 6.5
17:25 1009 29.8 839 24.78 -5.1 22.9 49 -14.2 6.5
17:30 1009 29.8 839 24.78 -4.9 23.1 50 -13.9 7
17:35 1009 29.8 838 24.75 -5.3 22.5 51 -14 6.9
17:40 1009 29.8 838 24.75 -5.7 21.7 54 -13.7 7.3
17:45 1009 29.8 838 24.75 -6.3 20.7 56 -13.7 7.4
17:50 1009 29.8 838 24.75 -6.6 20.1 58 -13.6 7.5
17:55 1009 29.8 838 24.75 -6.8 19.7 59 -13.5 7.7
18:00 1009 29.8 838 24.75 -7 19.4 60 -13.5 7.8
18:05 1009 29.8 838 24.75 -7.3 18.9 60 -13.7 7.4
18:10 1009 29.8 838 24.75 -7.3 18.8 60 -13.8 7.1
18:15 1009 29.8 838 24.75 -7.3 18.9 61 -13.6 7.6
18:20 1008 29.77 838 24.75 -7.5 18.5 61 -13.8 7.2
18:25 1008 29.77 838 24.75 -7.5 18.6 59 -14.2 6.5
18:30 1008 29.77 837 24.72 -7.5 18.5 61 -13.9 7
18:35 1008 29.77 837 24.72 -7.9 17.7 63 -13.7 7.3
18:40 1008 29.77 837 24.72 -8.3 17 66 -13.6 7.6
18:45 1008 29.77 837 24.72 -8.3 17.2 66 -13.5 7.7
18:50 1008 29.77 837 24.72 -8.2 17.3 67 -13.2 8.2
18:55 1008 29.77 837 24.72 -8.1 17.4 68 -13.1 8.4
19:00 1008 29.77 837 24.72 -8 17.7 67 -13 8.5
19:05 1008 29.77 837 24.72 -8 17.6 68 -13 8.6
19:10 1008 29.77 837 24.72 -8.3 17 69 -13.1 8.4
19:15 1008 29.77 837 24.72 -8.7 16.3 70 -13.3 8.1
19:20 1008 29.77 837 24.72 -9 15.8 70 -13.5 7.6
19:25 1007 29.74 837 24.72 -9.4 15.2 70 -13.8 7.1
19:30 1007 29.74 837 24.72 -9.6 14.8 71 -13.8 7.1
19:35 1007 29.74 836 24.69 -9.5 15 73 -13.5 7.6
19:40 1007 29.74 836 24.69 -9.3 15.4 72 -13.5 7.7
19:45 1007 29.74 836 24.69 -9.1 15.5 71 -13.4 7.8
19:50 1007 29.74 836 24.69 -9.1 15.6 71 -13.4 7.8
19:55 1007 29.74 836 24.69 -9.3 15.2 72 -13.4 7.9
20:00 1007 29.74 836 24.69 -9.5 15 72 -13.5 7.6
20:05 1007 29.74 836 24.69 -9.5 14.9 73 -13.6 7.6
20:10 1007 29.74 836 24.69 -9.5 15 72 -13.6 7.6
20:15 1007 29.74 836 24.69 -9.6 14.7 72 -13.8 7.1
20:20 1007 29.74 836 24.69 -10 14.1 71 -14.2 6.4
20:25 1007 29.74 836 24.69 -9.9 14.2 72 -14.1 6.6
20:30 1007 29.74 836 24.69 -9.8 14.3 71 -14.1 6.5
20:35 1007 29.74 836 24.69 -9.6 14.6 70 -14.1 6.6
20:40 1007 29.74 836 24.69 -9.2 15.4 68 -14 6.7
20:45 1007 29.74 836 24.69 -8.7 16.4 66 -13.8 7.1
20:50 1007 29.74 836 24.69 -8.6 16.5 67 -13.7 7.4
20:55 1007 29.74 836 24.69 -9 15.8 69 -13.7 7.3
21:00 1006 29.71 836 24.69 -9.2 15.5 70 -13.6 7.5
21:05 1006 29.71 836 24.69 -9.1 15.6 71 -13.5 7.7
21:10 1006 29.71 836 24.69 -9.2 15.4 72 -13.3 8
21:15 1006 29.71 836 24.69 -9.2 15.5 72 -13.4 7.9
21:20 1007 29.74 836 24.69 -9.2 15.4 73 -13.2 8.2
21:25 1007 29.74 836 24.69 -9.3 15.3 72 -13.4 7.8
21:30 1007 29.74 836 24.69 -9.5 14.8 73 -13.6 7.5
21:35 1007 29.74 836 24.69 -9.8 14.3 72 -13.9 7
21:40 1007 29.74 836 24.69 -9.9 14.2 73 -13.9 6.9
21:45 1006 29.71 836 24.69 -10 14 72 -14.2 6.4
21:50 1006 29.71 836 24.69 -10.2 13.7 72 -14.4 6.1
21:55 1006 29.71 836 24.69 -10.2 13.7 73 -14.1 6.6
22:00 1006 29.71 835 24.66 -10 13.9 73 -14.1 6.6
22:05 1006 29.71 835 24.66 -9.9 14.1 73 -13.9 7
22:10 1006 29.71 835 24.66 -9.8 14.3 72 -14 6.8
22:15 1006 29.71 835 24.66 -9.8 14.4 72 -13.9 7
22:20 1006 29.71 835 24.66 -9.6 14.8 72 -13.7 7.3
22:25 1006 29.71 835 24.66 -9.6 14.6 73 -13.6 7.5
22:30 1006 29.71 835 24.66 -9.9 14.3 74 -13.7 7.4
22:35 1006 29.71 835 24.66 -10.1 13.8 75 -13.8 7.2
22:40 1006 29.71 835 24.66 -10.3 13.5 77 -13.6 7.6
22:45 1006 29.71 835 24.66 -10 14 76 -13.5 7.7
22:50 1006 29.71 835 24.66 -9.6 14.7 74 -13.3 8
22:55 1006 29.71 835 24.66 -9.1 15.6 73 -13.1 8.4
23:00 1006 29.71 836 24.69 -9.7 14.5 73 -13.8 7.2
23:05 1006 29.71 836 24.69 -11 12.3 76 -14.4 6.1
23:10 1006 29.71 836 24.69 -11 12.3 78 -14.1 6.7
23:15 1006 29.71 836 24.69 -10.6 12.9 80 -13.5 7.7
23:20 1006 29.71 836 24.69 -10.5 13.1 80 -13.4 7.9
23:25 1006 29.71 836 24.69 -10.5 13.1 81 -13.2 8.3
23:30 1006 29.71 836 24.69 -10.9 12.4 86 -12.9 8.8
23:35 1006 29.71 836 24.69 -10.2 13.7 85 -12.2 10
23:40 1006 29.71 835 24.66 -9.5 14.9 81 -12.2 10
23:45 1006 29.71 835 24.66 -9.7 14.6 78 -12.8 8.9
23:50 1006 29.71 835 24.66 -9.9 14.2 79 -12.8 8.9
23:55 1006 29.71 835 24.66 -9.6 14.8 78 -12.6 9.2
24:00 1006 29.71 835 24.66 -9.5 14.8 77 -12.8 8.9